sensor_id;sensor_type;location;lat;lon;timestamp;temperature;humidity
52073;DHT22;38074;51.232;6.826;2022-09-01T00:04:02;25.90;46.50
52073;DHT22;38074;51.232;6.826;2022-09-01T00:11:20;25.90;46.50
52073;DHT22;38074;51.232;6.826;2022-09-01T00:18:36;25.90;46.40
52073;DHT22;38074;51.232;6.826;2022-09-01T00:25:52;25.90;46.40
52073;DHT22;38074;51.232;6.826;2022-09-01T00:33:09;26.00;47.10
52073;DHT22;38074;51.232;6.826;2022-09-01T00:40:24;25.90;46.40
52073;DHT22;38074;51.232;6.826;2022-09-01T00:47:40;25.90;46.40
52073;DHT22;38074;51.232;6.826;2022-09-01T00:55:00;25.90;46.40
52073;DHT22;38074;51.232;6.826;2022-09-01T01:02:17;25.90;46.40
52073;DHT22;38074;51.232;6.826;2022-09-01T01:09:35;25.90;46.40
52073;DHT22;38074;51.232;6.826;2022-09-01T01:16:52;25.90;46.30
52073;DHT22;38074;51.232;6.826;2022-09-01T01:24:30;25.90;46.30
52073;DHT22;38074;51.232;6.826;2022-09-01T01:31:46;25.90;46.30
52073;DHT22;38074;51.232;6.826;2022-09-01T01:39:10;25.90;46.40
52073;DHT22;38074;51.232;6.826;2022-09-01T01:46:26;25.90;46.40
52073;DHT22;38074;51.232;6.826;2022-09-01T01:53:42;25.90;46.30
52073;DHT22;38074;51.232;6.826;2022-09-01T02:00:57;25.90;46.30
52073;DHT22;38074;51.232;6.826;2022-09-01T02:08:14;25.90;46.40
52073;DHT22;38074;51.232;6.826;2022-09-01T02:15:30;25.90;46.30
52073;DHT22;38074;51.232;6.826;2022-09-01T02:22:58;25.90;46.30
52073;DHT22;38074;51.232;6.826;2022-09-01T02:30:24;25.90;46.40
52073;DHT22;38074;51.232;6.826;2022-09-01T02:37:42;25.90;46.30
52073;DHT22;38074;51.232;6.826;2022-09-01T02:44:57;25.90;46.30
52073;DHT22;38074;51.232;6.826;2022-09-01T02:52:13;25.90;46.30
52073;DHT22;38074;51.232;6.826;2022-09-01T02:59:30;25.90;46.30
52073;DHT22;38074;51.232;6.826;2022-09-01T03:06:47;25.90;46.30
52073;DHT22;38074;51.232;6.826;2022-09-01T03:14:03;25.90;46.20
52073;DHT22;38074;51.232;6.826;2022-09-01T03:21:19;25.90;46.20
52073;DHT22;38074;51.232;6.826;2022-09-01T03:28:34;25.90;46.30
52073;DHT22;38074;51.232;6.826;2022-09-01T03:35:53;25.90;46.20
52073;DHT22;38074;51.232;6.826;2022-09-01T03:43:08;25.90;46.20
52073;DHT22;38074;51.232;6.826;2022-09-01T03:50:25;25.90;46.20
52073;DHT22;38074;51.232;6.826;2022-09-01T03:57:42;25.90;46.10
52073;DHT22;38074;51.232;6.826;2022-09-01T04:04:57;25.90;46.10
52073;DHT22;38074;51.232;6.826;2022-09-01T04:12:15;25.90;46.10
52073;DHT22;38074;51.232;6.826;2022-09-01T04:19:34;25.90;46.10
52073;DHT22;38074;51.232;6.826;2022-09-01T04:26:51;25.90;46.10
52073;DHT22;38074;51.232;6.826;2022-09-01T04:34:07;25.90;46.10
52073;DHT22;38074;51.232;6.826;2022-09-01T04:41:30;25.90;46.10
52073;DHT22;38074;51.232;6.826;2022-09-01T04:48:46;25.90;46.10
52073;DHT22;38074;51.232;6.826;2022-09-01T04:56:03;25.90;46.00
52073;DHT22;38074;51.232;6.826;2022-09-01T05:03:19;25.90;46.00
52073;DHT22;38074;51.232;6.826;2022-09-01T05:10:42;25.90;45.90
52073;DHT22;38074;51.232;6.826;2022-09-01T05:17:58;25.90;46.00
52073;DHT22;38074;51.232;6.826;2022-09-01T05:25:14;25.90;45.80
52073;DHT22;38074;51.232;6.826;2022-09-01T05:32:29;25.90;45.90
52073;DHT22;38074;51.232;6.826;2022-09-01T05:39:47;25.90;45.90
52073;DHT22;38074;51.232;6.826;2022-09-01T05:47:03;25.90;45.90
52073;DHT22;38074;51.232;6.826;2022-09-01T05:54:25;25.90;45.80
52073;DHT22;38074;51.232;6.826;2022-09-01T06:01:42;25.90;45.90
52073;DHT22;38074;51.232;6.826;2022-09-01T06:08:58;25.90;45.80
52073;DHT22;38074;51.232;6.826;2022-09-01T06:16:14;25.90;45.80
52073;DHT22;38074;51.232;6.826;2022-09-01T06:23:30;25.90;45.80
52073;DHT22;38074;51.232;6.826;2022-09-01T06:30:46;25.90;45.80
52073;DHT22;38074;51.232;6.826;2022-09-01T06:38:04;25.90;45.80
52073;DHT22;38074;51.232;6.826;2022-09-01T06:45:22;25.90;45.80
52073;DHT22;38074;51.232;6.826;2022-09-01T06:52:38;25.90;45.80
52073;DHT22;38074;51.232;6.826;2022-09-01T06:59:54;25.90;45.70
52073;DHT22;38074;51.232;6.826;2022-09-01T07:07:11;25.90;45.70
52073;DHT22;38074;51.232;6.826;2022-09-01T07:14:27;25.90;45.70
52073;DHT22;38074;51.232;6.826;2022-09-01T07:21:43;25.90;45.70
52073;DHT22;38074;51.232;6.826;2022-09-01T07:28:58;25.90;45.60
52073;DHT22;38074;51.232;6.826;2022-09-01T07:36:15;26.00;45.80
52073;DHT22;38074;51.232;6.826;2022-09-01T07:43:31;25.90;45.70
52073;DHT22;38074;51.232;6.826;2022-09-01T07:50:51;25.90;45.60
52073;DHT22;38074;51.232;6.826;2022-09-01T07:58:07;26.00;45.70
52073;DHT22;38074;51.232;6.826;2022-09-01T08:05:22;26.00;45.70
52073;DHT22;38074;51.232;6.826;2022-09-01T08:12:41;26.00;45.60
52073;DHT22;38074;51.232;6.826;2022-09-01T08:19:57;26.00;45.60
52073;DHT22;38074;51.232;6.826;2022-09-01T08:27:12;26.00;45.60
52073;DHT22;38074;51.232;6.826;2022-09-01T08:34:28;26.00;45.50
52073;DHT22;38074;51.232;6.826;2022-09-01T08:41:51;26.00;45.30
52073;DHT22;38074;51.232;6.826;2022-09-01T08:49:17;26.00;45.40
52073;DHT22;38074;51.232;6.826;2022-09-01T08:56:34;26.00;45.30
52073;DHT22;38074;51.232;6.826;2022-09-01T09:11:51;26.00;45.10
52073;DHT22;38074;51.232;6.826;2022-09-01T09:26:30;26.00;44.50
52073;DHT22;38074;51.232;6.826;2022-09-01T09:33:46;26.00;44.50
52073;DHT22;38074;51.232;6.826;2022-09-01T09:41:19;26.00;44.30
52073;DHT22;38074;51.232;6.826;2022-09-01T09:48:35;26.00;44.30
52073;DHT22;38074;51.232;6.826;2022-09-01T10:03:12;26.00;43.90
52073;DHT22;38074;51.232;6.826;2022-09-01T10:10:47;26.00;43.80
52073;DHT22;38074;51.232;6.826;2022-09-01T10:18:11;26.00;43.80
52073;DHT22;38074;51.232;6.826;2022-09-01T10:25:31;26.00;43.70
52073;DHT22;38074;51.232;6.826;2022-09-01T10:32:53;26.00;43.60
52073;DHT22;38074;51.232;6.826;2022-09-01T10:40:18;26.00;43.30
52073;DHT22;38074;51.232;6.826;2022-09-01T10:47:34;26.00;43.40
52073;DHT22;38074;51.232;6.826;2022-09-01T10:54:55;26.00;43.20
52073;DHT22;38074;51.232;6.826;2022-09-01T11:02:16;26.00;43.30
52073;DHT22;38074;51.232;6.826;2022-09-01T11:17:17;26.00;43.20
52073;DHT22;38074;51.232;6.826;2022-09-01T11:32:03;26.00;43.00
52073;DHT22;38074;51.232;6.826;2022-09-01T11:39:33;26.00;43.00
52073;DHT22;38074;51.232;6.826;2022-09-01T11:46:49;26.00;42.80
52073;DHT22;38074;51.232;6.826;2022-09-01T11:54:06;26.00;42.70
52073;DHT22;38074;51.232;6.826;2022-09-01T12:01:33;26.00;42.60
52073;DHT22;38074;51.232;6.826;2022-09-01T12:08:56;26.00;43.20
52073;DHT22;38074;51.232;6.826;2022-09-01T12:16:20;26.00;42.60
52073;DHT22;38074;51.232;6.826;2022-09-01T12:23:38;26.00;42.50
52073;DHT22;38074;51.232;6.826;2022-09-01T12:31:04;26.00;42.40
52073;DHT22;38074;51.232;6.826;2022-09-01T12:38:22;26.10;42.40
52073;DHT22;38074;51.232;6.826;2022-09-01T12:45:46;26.00;42.30
52073;DHT22;38074;51.232;6.826;2022-09-01T12:53:03;26.00;42.30
52073;DHT22;38074;51.232;6.826;2022-09-01T13:08:21;26.00;42.30
52073;DHT22;38074;51.232;6.826;2022-09-01T13:15:39;26.00;42.20
52073;DHT22;38074;51.232;6.826;2022-09-01T13:22:54;26.00;42.10
52073;DHT22;38074;51.232;6.826;2022-09-01T13:30:12;26.00;42.10
52073;DHT22;38074;51.232;6.826;2022-09-01T13:37:29;26.00;42.20
52073;DHT22;38074;51.232;6.826;2022-09-01T13:44:44;26.10;42.20
52073;DHT22;38074;51.232;6.826;2022-09-01T13:52:01;26.10;42.20
52073;DHT22;38074;51.232;6.826;2022-09-01T13:59:17;26.10;42.20
52073;DHT22;38074;51.232;6.826;2022-09-01T14:06:32;26.10;42.20
52073;DHT22;38074;51.232;6.826;2022-09-01T14:13:53;26.10;42.20
52073;DHT22;38074;51.232;6.826;2022-09-01T14:21:13;26.10;42.10
52073;DHT22;38074;51.232;6.826;2022-09-01T14:28:29;26.10;42.20
52073;DHT22;38074;51.232;6.826;2022-09-01T14:35:46;26.10;42.20
52073;DHT22;38074;51.232;6.826;2022-09-01T14:43:03;26.10;42.10
52073;DHT22;38074;51.232;6.826;2022-09-01T14:50:21;26.10;42.20
52073;DHT22;38074;51.232;6.826;2022-09-01T14:57:37;26.10;42.20
52073;DHT22;38074;51.232;6.826;2022-09-01T15:04:52;26.10;42.30
52073;DHT22;38074;51.232;6.826;2022-09-01T15:12:08;26.10;42.10
52073;DHT22;38074;51.232;6.826;2022-09-01T15:19:23;26.10;42.20
52073;DHT22;38074;51.232;6.826;2022-09-01T15:26:39;26.10;42.20
52073;DHT22;38074;51.232;6.826;2022-09-01T15:34:01;26.10;42.10
52073;DHT22;38074;51.232;6.826;2022-09-01T15:41:19;26.10;42.00
52073;DHT22;38074;51.232;6.826;2022-09-01T15:48:35;26.10;42.00
52073;DHT22;38074;51.232;6.826;2022-09-01T15:55:50;26.10;42.10
52073;DHT22;38074;51.232;6.826;2022-09-01T16:03:06;26.10;42.10
52073;DHT22;38074;51.232;6.826;2022-09-01T16:10:22;26.10;42.00
52073;DHT22;38074;51.232;6.826;2022-09-01T16:17:50;26.10;42.00
52073;DHT22;38074;51.232;6.826;2022-09-01T16:25:14;26.10;42.00
52073;DHT22;38074;51.232;6.826;2022-09-01T16:32:31;26.10;42.00
52073;DHT22;38074;51.232;6.826;2022-09-01T16:40:13;26.10;42.00
52073;DHT22;38074;51.232;6.826;2022-09-01T16:55:31;26.10;42.00
52073;DHT22;38074;51.232;6.826;2022-09-01T17:03:05;26.10;42.00
52073;DHT22;38074;51.232;6.826;2022-09-01T17:10:41;26.10;41.90
52073;DHT22;38074;51.232;6.826;2022-09-01T17:18:16;26.10;42.00
52073;DHT22;38074;51.232;6.826;2022-09-01T17:25:39;26.10;41.90
52073;DHT22;38074;51.232;6.826;2022-09-01T17:33:15;26.10;41.90
52073;DHT22;38074;51.232;6.826;2022-09-01T17:48:47;26.10;42.00
52073;DHT22;38074;51.232;6.826;2022-09-01T18:04:18;26.10;41.80
52073;DHT22;38074;51.232;6.826;2022-09-01T18:11:58;26.10;41.90
52073;DHT22;38074;51.232;6.826;2022-09-01T18:19:18;26.10;41.80
52073;DHT22;38074;51.232;6.826;2022-09-01T18:26:38;26.10;41.80
52073;DHT22;38074;51.232;6.826;2022-09-01T18:34:17;26.10;41.60
52073;DHT22;38074;51.232;6.826;2022-09-01T18:41:48;26.10;41.70
52073;DHT22;38074;51.232;6.826;2022-09-01T18:49:10;26.10;41.70
52073;DHT22;38074;51.232;6.826;2022-09-01T18:56:57;26.10;41.60
52073;DHT22;38074;51.232;6.826;2022-09-01T19:04:29;26.10;41.60
52073;DHT22;38074;51.232;6.826;2022-09-01T19:11:47;26.10;41.60
52073;DHT22;38074;51.232;6.826;2022-09-01T19:26:46;26.10;41.70
52073;DHT22;38074;51.232;6.826;2022-09-01T19:34:09;26.10;41.60
52073;DHT22;38074;51.232;6.826;2022-09-01T19:41:30;26.10;41.60
52073;DHT22;38074;51.232;6.826;2022-09-01T19:49:05;26.10;41.60
52073;DHT22;38074;51.232;6.826;2022-09-01T19:56:42;26.10;41.90
52073;DHT22;38074;51.232;6.826;2022-09-01T20:04:13;26.10;41.70
52073;DHT22;38074;51.232;6.826;2022-09-01T20:19:07;26.10;41.70
52073;DHT22;38074;51.232;6.826;2022-09-01T20:26:38;26.10;41.60
52073;DHT22;38074;51.232;6.826;2022-09-01T20:34:03;26.10;41.60
52073;DHT22;38074;51.232;6.826;2022-09-01T20:41:33;26.10;41.50
52073;DHT22;38074;51.232;6.826;2022-09-01T20:48:50;26.10;41.60
52073;DHT22;38074;51.232;6.826;2022-09-01T20:56:37;26.10;41.40
52073;DHT22;38074;51.232;6.826;2022-09-01T21:26:20;26.10;41.50
52073;DHT22;38074;51.232;6.826;2022-09-01T21:33:36;26.10;41.40
52073;DHT22;38074;51.232;6.826;2022-09-01T21:40:52;26.10;41.30
52073;DHT22;38074;51.232;6.826;2022-09-01T21:48:07;26.10;41.30
52073;DHT22;38074;51.232;6.826;2022-09-01T21:55:23;26.10;41.30
52073;DHT22;38074;51.232;6.826;2022-09-01T22:02:39;26.10;41.20
52073;DHT22;38074;51.232;6.826;2022-09-01T22:09:55;26.10;41.30
52073;DHT22;38074;51.232;6.826;2022-09-01T22:17:11;26.10;41.10
52073;DHT22;38074;51.232;6.826;2022-09-01T22:24:27;26.10;41.20
52073;DHT22;38074;51.232;6.826;2022-09-01T22:31:43;26.10;41.30
52073;DHT22;38074;51.232;6.826;2022-09-01T22:38:59;26.10;41.20
52073;DHT22;38074;51.232;6.826;2022-09-01T22:46:17;26.10;41.20
52073;DHT22;38074;51.232;6.826;2022-09-01T22:53:34;26.10;41.40
52073;DHT22;38074;51.232;6.826;2022-09-01T23:00:53;26.10;41.20
52073;DHT22;38074;51.232;6.826;2022-09-01T23:08:11;26.10;41.40
52073;DHT22;38074;51.232;6.826;2022-09-01T23:15:26;26.10;41.30
52073;DHT22;38074;51.232;6.826;2022-09-01T23:22:43;26.10;41.30
52073;DHT22;38074;51.232;6.826;2022-09-01T23:29:58;26.10;41.20
52073;DHT22;38074;51.232;6.826;2022-09-01T23:37:14;26.10;41.20
52073;DHT22;38074;51.232;6.826;2022-09-01T23:44:30;26.10;41.10
52073;DHT22;38074;51.232;6.826;2022-09-01T23:51:47;26.10;41.20
52073;DHT22;38074;51.232;6.826;2022-09-01T23:59:03;26.10;41.30
